Philadelphia, Pennsylvania
Traffic Map
Current Weather Conditions
Philadelphia, Pennsylvania
Overcast
Overcast
48°
Feels Like: 45°
Wind Chill: 45° Ceiling: 16000
Heat Index: 48° Visibility: 10mi
Dew Point: 37° Wind: 7mph
Humidity: 66% Direction: 270° (W)
Pressure: 29.69in Gusts: 0mph
Raw Report DataKPHL 260454Z 27006KT 10SM OVC160 09/03 A2969 RMK AO2 SLP053 T00890028 401440028 $
Traffic Incident Summary
Active as of:
Severity:
Category:
InformationThere was an issue retrieving the traffic information for this location. Please try a different location or try again shortly.
Advertisements
Track Severe Weather on mobile